Time;durP1;ratioP1;P1;durP2;ratioP2;P2;SDS_P1;SDS_P2;PMS_P1;PMS_P2;Temp;Humidity;BMP_temperature;BMP_pressure;BME280_temperature;BME280_humidity;BME280_pressure;Samples;Min_cycle;Max_cycle;Signal;HPM_P1;HPM_P2
2023/10/04 00:00:15;;;;;;;3.87;2.13;;;;;;;14.67;70.15;100213.94;5092539;28;20583;-66
2023/10/04 00:02:45;;;;;;;1.80;1.70;;;;;;;14.65;70.28;100204.56;5092301;28;20205;-66
2023/10/04 00:05:15;;;;;;;1.57;1.47;;;;;;;14.57;70.43;100211.75;5092374;28;20207;-66
2023/10/04 00:07:44;;;;;;;1.60;1.50;;;;;;;14.54;70.42;100207.50;5092406;28;20217;-66
2023/10/04 00:10:11;;;;;;;1.67;1.27;;;;;;;14.34;70.54;100203.91;5092325;28;20211;-66
2023/10/04 00:12:38;;;;;;;4.47;1.53;;;;;;;14.36;70.37;100200.38;5092219;28;20195;-66
2023/10/04 00:15:09;;;;;;;1.37;1.10;;;;;;;14.37;70.83;100191.75;5092250;28;20240;-66
2023/10/04 00:17:36;;;;;;;5.57;1.57;;;;;;;14.34;71.07;100189.28;5092228;28;20243;-66
2023/10/04 00:20:07;;;;;;;1.97;1.80;;;;;;;14.33;70.84;100190.16;5091991;28;20241;-65
2023/10/04 00:22:36;;;;;;;3.40;2.17;;;;;;;14.32;71.05;100196.16;5091858;28;20227;-66
2023/10/04 00:25:09;;;;;;;2.00;1.80;;;;;;;14.32;71.46;100193.59;5092128;28;20288;-66
2023/10/04 00:27:36;;;;;;;6.03;2.37;;;;;;;14.25;72.34;100189.53;5092280;28;20211;-66
2023/10/04 00:30:05;;;;;;;2.37;1.50;;;;;;;14.18;73.00;100186.31;5092074;28;20294;-66
2023/10/04 00:32:32;;;;;;;2.20;1.93;;;;;;;14.23;72.51;100191.31;5091970;28;20213;-66
2023/10/04 00:34:59;;;;;;;6.80;1.40;;;;;;;14.22;72.53;100192.19;5092079;28;20199;-67
2023/10/04 00:37:50;;;;;;;2.17;1.53;;;;;;;14.18;72.58;100188.06;5092074;28;20199;-66
2023/10/04 00:40:21;;;;;;;3.03;1.33;;;;;;;14.14;72.46;100187.31;5092080;28;20696;-66
2023/10/04 00:42:49;;;;;;;1.33;1.23;;;;;;;14.12;72.86;100183.06;5091845;28;20302;-66
2023/10/04 00:45:16;;;;;;;7.73;1.83;;;;;;;14.09;73.10;100183.16;5091401;28;20679;-66
2023/10/04 00:47:47;;;;;;;1.27;1.20;;;;;;;14.10;72.66;100187.44;5092071;28;20203;-66
2023/10/04 00:50:16;;;;;;;1.93;1.83;;;;;;;14.07;72.90;100184.97;5091897;28;20282;-66
2023/10/04 00:52:50;;;;;;;2.00;1.63;;;;;;;14.05;73.25;100186.75;5091734;28;20202;-66
2023/10/04 00:55:19;;;;;;;2.57;1.53;;;;;;;13.97;73.07;100181.84;5091702;28;20202;-66
2023/10/04 00:57:48;;;;;;;5.07;2.37;;;;;;;13.91;73.52;100171.72;5091686;28;20201;-66
2023/10/04 01:00:17;;;;;;;2.07;1.87;;;;;;;13.79;74.25;100173.84;5091547;28;20714;-66
2023/10/04 01:02:44;;;;;;;2.40;1.43;;;;;;;13.80;74.28;100170.34;5091649;28;20199;-66
2023/10/04 01:05:11;;;;;;;3.13;2.10;;;;;;;13.73;74.64;100163.72;5091535;28;20214;-66
2023/10/04 01:07:39;;;;;;;1.80;1.70;;;;;;;13.72;74.73;100167.19;5091693;28;20245;-66
2023/10/04 01:10:14;;;;;;;3.03;2.00;;;;;;;13.68;75.40;100172.44;5091478;28;20637;-66
2023/10/04 01:12:42;;;;;;;2.37;2.17;;;;;;;13.66;75.15;100173.38;5091506;28;20659;-66
2023/10/04 01:15:26;;;;;;;3.67;2.13;;;;;;;13.67;75.09;100169.88;5091462;28;20199;-65
2023/10/04 01:17:53;;;;;;;1.60;1.50;;;;;;;13.68;75.40;100171.59;5091371;28;20198;-66
2023/10/04 01:20:22;;;;;;;6.57;2.83;;;;;;;13.68;75.33;100167.28;5091193;28;20273;-66
2023/10/04 01:22:51;;;;;;;2.30;2.03;;;;;;;13.69;75.36;100173.28;5091455;28;20207;-65
2023/10/04 01:25:19;;;;;;;2.00;1.90;;;;;;;13.67;75.63;100175.88;5091380;28;20246;-66
2023/10/04 01:27:45;;;;;;;5.50;1.17;;;;;;;13.65;75.59;100176.84;5091509;28;20209;-66
2023/10/04 01:30:14;;;;;;;3.77;2.13;;;;;;;13.54;75.82;100166.84;5091135;28;20673;-66
2023/10/04 01:32:41;;;;;;;1.43;1.33;;;;;;;13.64;76.28;100175.13;5091368;28;20196;-66
2023/10/04 01:35:11;;;;;;;2.87;2.67;;;;;;;13.62;76.18;100176.94;5091293;28;20195;-66
2023/10/04 01:37:39;;;;;;;2.27;2.10;;;;;;;13.60;76.43;100184.69;5091463;28;20677;-66
2023/10/04 01:40:12;;;;;;;2.53;2.23;;;;;;;13.59;76.42;100184.75;5091135;28;20211;-66
2023/10/04 01:42:45;;;;;;;3.13;2.00;;;;;;;13.54;76.72;100191.75;5091766;28;20193;-66
2023/10/04 01:45:15;;;;;;;4.10;2.77;;;;;;;13.46;76.59;100170.53;5091255;28;20209;-66
2023/10/04 01:47:42;;;;;;;4.37;2.90;;;;;;;13.39;76.80;100162.16;5091368;28;20738;-66
2023/10/04 01:50:10;;;;;;;3.83;3.40;;;;;;;13.51;76.79;100179.81;5091056;28;20210;-66
2023/10/04 01:52:38;;;;;;;2.73;1.93;;;;;;;13.50;76.61;100179.88;5091273;28;20196;-66
2023/10/04 01:55:10;;;;;;;4.30;2.57;;;;;;;13.47;76.93;100178.22;5091044;28;20694;-66
2023/10/04 01:57:39;;;;;;;3.57;2.77;;;;;;;13.43;76.67;100174.06;5076307;28;20241;-66
2023/10/04 02:00:09;;;;;;;6.70;2.30;;;;;;;13.41;76.58;100175.81;5094588;28;20217;-66
2023/10/04 02:02:39;;;;;;;5.83;3.13;;;;;;;13.38;76.43;100175.91;5094786;28;20203;-66
2023/10/04 02:05:09;;;;;;;4.37;4.07;;;;;;;13.37;76.91;100173.41;5094536;28;20234;-66
2023/10/04 02:07:38;;;;;;;3.23;2.77;;;;;;;13.35;76.96;100172.56;5094766;28;20227;-66
2023/10/04 02:10:09;;;;;;;4.03;3.17;;;;;;;13.33;77.03;100175.22;5094671;28;20214;-66
2023/10/04 02:12:36;;;;;;;3.90;2.83;;;;;;;13.33;76.79;100175.22;5074315;28;20249;-66
2023/10/04 02:15:06;;;;;;;3.90;2.60;;;;;;;13.31;76.70;100176.97;5074557;28;20215;-66
2023/10/04 02:17:33;;;;;;;8.57;2.93;;;;;;;13.29;76.77;100181.34;5091313;28;20282;-66
2023/10/04 02:19:59;;;;;;;2.73;2.53;;;;;;;13.28;76.66;100182.22;5094504;28;20231;-66
2023/10/04 02:22:28;;;;;;;4.23;3.27;;;;;;;13.27;76.90;100180.53;5094332;28;20203;-66
2023/10/04 02:24:55;;;;;;;3.07;2.60;;;;;;;13.25;76.91;100179.72;5094381;28;20203;-65
2023/10/04 02:27:21;;;;;;;4.60;3.03;;;;;;;13.25;76.79;100182.31;5094063;28;20226;-66
2023/10/04 02:29:49;;;;;;;3.20;2.90;;;;;;;13.23;76.76;100178.09;5094322;28;20578;-66
2023/10/04 02:32:17;;;;;;;3.33;2.53;;;;;;;13.20;76.87;100179.03;5094804;28;20215;-66
2023/10/04 02:34:44;;;;;;;9.63;2.90;;;;;;;13.18;76.93;100175.66;5094018;28;20667;-66
2023/10/04 02:37:11;;;;;;;5.10;3.17;;;;;;;13.12;77.06;100176.66;5094007;28;20204;-66
2023/10/04 02:39:38;;;;;;;8.37;3.03;;;;;;;13.13;77.15;100175.78;5093902;28;20223;-66
2023/10/04 02:42:09;;;;;;;3.80;3.27;;;;;;;13.09;77.13;100175.91;5093971;28;20217;-66
2023/10/04 02:44:36;;;;;;;4.83;2.70;;;;;;;13.08;77.01;100176.78;5093872;28;20205;-66
2023/10/04 02:47:06;;;;;;;3.07;2.53;;;;;;;13.04;76.85;100172.59;5093932;28;20246;-66
2023/10/04 02:49:37;;;;;;;2.27;2.07;;;;;;;12.97;76.86;100165.91;5093626;28;20254;-66
2023/10/04 02:52:05;;;;;;;8.90;2.47;;;;;;;13.01;76.62;100172.69;5094067;28;20264;-66
2023/10/04 02:54:32;;;;;;;2.40;1.47;;;;;;;13.00;76.69;100176.13;5093542;28;20206;-66
2023/10/04 02:56:59;;;;;;;2.80;2.03;;;;;;;12.97;77.17;100171.91;5093481;28;20191;-66
2023/10/04 02:59:26;;;;;;;4.67;2.17;;;;;;;12.96;77.39;100174.50;5093643;28;20603;-66
2023/10/04 03:01:53;;;;;;;1.87;1.77;;;;;;;12.92;77.34;100172.94;5093467;28;20649;-66
2023/10/04 03:04:21;;;;;;;2.50;2.23;;;;;;;12.89;77.31;100175.59;5093553;28;20340;-66
2023/10/04 03:06:51;;;;;;;4.10;2.60;;;;;;;12.89;77.66;100173.03;5093358;28;20195;-66
2023/10/04 03:09:18;;;;;;;1.87;1.73;;;;;;;12.86;78.00;100175.69;5093136;28;20318;-66
2023/10/04 03:11:44;;;;;;;3.87;2.37;;;;;;;12.84;77.59;100174.84;5093198;28;20207;-66
2023/10/04 03:14:12;;;;;;;2.97;2.73;;;;;;;12.83;77.66;100178.31;5093316;28;20192;-66
2023/10/04 03:16:42;;;;;;;5.83;2.27;;;;;;;12.79;77.75;100171.59;5093140;28;20671;-66
2023/10/04 03:19:10;;;;;;;2.93;2.43;;;;;;;12.80;78.07;100173.25;5093119;28;20710;-66
2023/10/04 03:21:44;;;;;;;1.80;1.70;;;;;;;12.74;78.76;100170.84;5093137;28;20226;-66
2023/10/04 03:24:12;;;;;;;3.53;2.27;;;;;;;12.73;78.78;100169.16;5092964;28;20237;-66
2023/10/04 03:26:39;;;;;;;5.90;1.73;;;;;;;12.74;79.07;100170.84;5093080;28;20203;-66
2023/10/04 03:29:06;;;;;;;1.97;1.87;;;;;;;12.71;79.28;100168.34;5093567;28;20281;-66
2023/10/04 03:31:35;;;;;;;3.80;2.00;;;;;;;12.73;79.30;100171.75;5093016;28;20645;-66
2023/10/04 03:34:04;;;;;;;1.97;1.73;;;;;;;12.64;79.95;100153.06;5092790;28;20639;-66
2023/10/04 03:36:34;;;;;;;2.13;1.90;;;;;;;12.74;79.67;100168.25;5092934;28;20210;-66
2023/10/04 03:39:03;;;;;;;2.47;2.27;;;;;;;12.74;79.96;100170.84;5092779;28;20210;-66
2023/10/04 03:41:31;;;;;;;2.30;2.20;;;;;;;12.75;80.08;100167.38;5093058;28;20333;-66
2023/10/04 03:43:58;;;;;;;3.37;2.10;;;;;;;12.73;80.07;100167.41;5092631;28;20200;-66
2023/10/04 03:46:25;;;;;;;1.70;1.70;;;;;;;12.72;80.21;100164.91;5092787;28;20205;-66
2023/10/04 03:48:52;;;;;;;1.73;1.63;;;;;;;12.72;80.33;100175.19;5092651;28;20675;-66
2023/10/04 03:51:20;;;;;;;2.03;1.93;;;;;;;12.67;80.49;100174.44;5092887;28;20208;-65
2023/10/04 03:53:49;;;;;;;7.63;1.70;;;;;;;12.58;80.82;100163.53;5092702;28;20207;-66
2023/10/04 03:56:17;;;;;;;2.40;2.20;;;;;;;12.63;81.19;100171.16;5092460;28;20298;-66
2023/10/04 03:58:45;;;;;;;4.50;2.07;;;;;;;12.57;81.99;100169.56;5092620;28;20203;-66
2023/10/04 04:01:14;;;;;;;1.57;1.53;;;;;;;12.56;81.91;100178.19;5092397;28;20219;-66
2023/10/04 04:03:41;;;;;;;2.17;1.97;;;;;;;12.54;81.72;100177.34;5092459;28;20208;-65
2023/10/04 04:06:08;;;;;;;2.27;1.83;;;;;;;12.53;82.02;100174.84;5092349;28;20257;-66
2023/10/04 04:08:37;;;;;;;1.67;1.57;;;;;;;12.48;82.15;100172.38;5092442;28;20293;-65
2023/10/04 04:11:06;;;;;;;3.23;1.90;;;;;;;12.46;82.32;100176.72;5092256;28;20730;-66
2023/10/04 04:13:35;;;;;;;2.77;1.50;;;;;;;12.46;82.53;100176.72;5092347;28;20203;-65
2023/10/04 04:16:09;;;;;;;2.30;2.10;;;;;;;12.39;82.96;100176.91;5092191;28;20589;-66
2023/10/04 04:18:37;;;;;;;1.80;1.70;;;;;;;12.33;83.16;100172.75;5092106;28;20689;-66
2023/10/04 04:21:05;;;;;;;1.97;1.87;;;;;;;12.20;84.09;100166.25;5091452;28;20223;-66
2023/10/04 04:23:32;;;;;;;2.47;2.37;;;;;;;12.24;83.78;100167.84;5091919;28;20207;-65
2023/10/04 04:26:00;;;;;;;3.03;2.37;;;;;;;12.27;83.61;100166.94;5091866;28;20195;-66
2023/10/04 04:28:29;;;;;;;2.07;1.93;;;;;;;12.26;83.41;100171.22;5091734;28;20203;-66
2023/10/04 04:30:58;;;;;;;4.93;2.03;;;;;;;12.25;82.85;100172.09;5092057;28;20290;-66
2023/10/04 04:33:28;;;;;;;4.53;2.50;;;;;;;12.25;83.23;100168.69;5091766;28;20264;-66
2023/10/04 04:36:01;;;;;;;10.27;2.73;;;;;;;12.13;83.23;100172.41;5092068;28;20210;-65
2023/10/04 04:38:28;;;;;;;4.10;2.73;;;;;;;12.03;83.43;100147.81;5091748;28;20197;-65
2023/10/04 04:40:56;;;;;;;4.00;2.40;;;;;;;12.10;83.20;100164.75;5091815;28;20318;-65
2023/10/04 04:43:35;;;;;;;2.20;2.07;;;;;;;12.06;82.69;100156.28;5091800;28;20690;-65
2023/10/04 04:46:06;;;;;;;2.70;2.53;;;;;;;12.16;83.03;100174.91;5091863;28;20202;-65
2023/10/04 04:48:36;;;;;;;2.13;1.93;;;;;;;12.06;82.81;100158.00;5091671;28;20199;-65
2023/10/04 04:51:10;;;;;;;3.13;2.57;;;;;;;12.18;83.37;100183.41;5091741;28;20195;-65
2023/10/04 04:53:39;;;;;;;7.00;2.20;;;;;;;12.20;83.62;100184.22;5091693;28;20256;-65
2023/10/04 04:56:07;;;;;;;10.57;2.03;;;;;;;12.20;84.14;100180.81;5091778;28;20211;-66
2023/10/04 04:58:34;;;;;;;2.00;1.50;;;;;;;12.19;84.80;100177.38;5091565;28;20230;-66
2023/10/04 05:01:02;;;;;;;2.63;2.30;;;;;;;12.21;85.00;100173.06;5091764;28;20306;-66
2023/10/04 05:03:29;;;;;;;1.93;1.83;;;;;;;12.27;85.61;100185.78;5091568;28;20214;-66
2023/10/04 05:05:58;;;;;;;6.10;2.47;;;;;;;12.31;85.72;100184.78;5091678;28;20235;-66
2023/10/04 05:08:25;;;;;;;5.17;1.87;;;;;;;12.33;86.20;100183.06;5091704;28;20210;-66
2023/10/04 05:10:54;;;;;;;3.13;2.07;;;;;;;12.30;86.26;100177.13;5091540;28;20231;-66
2023/10/04 05:13:22;;;;;;;4.97;2.13;;;;;;;12.38;86.83;100186.34;5091644;28;20671;-66
2023/10/04 05:15:49;;;;;;;3.40;2.77;;;;;;;12.43;87.41;100184.50;5091369;28;20199;-65
2023/10/04 05:18:17;;;;;;;1.80;1.70;;;;;;;12.44;87.33;100183.59;5091756;28;20297;-65
2023/10/04 05:20:45;;;;;;;3.47;2.23;;;;;;;12.49;87.24;100179.22;5091105;28;20238;-66
2023/10/04 05:23:14;;;;;;;3.03;2.83;;;;;;;12.54;87.19;100182.50;5091541;28;20297;-66
2023/10/04 05:25:41;;;;;;;2.30;2.10;;;;;;;12.61;86.34;100194.31;5088690;28;20210;-66
2023/10/04 05:28:11;;;;;;;3.17;2.67;;;;;;;12.72;86.42;100185.47;5091615;28;20207;-67
2023/10/04 05:30:39;;;;;;;2.27;2.17;;;;;;;12.87;85.85;100190.22;5091628;28;20192;-66
2023/10/04 05:33:07;;;;;;;2.00;1.90;;;;;;;13.02;85.59;100190.63;5095515;28;20214;-66
2023/10/04 05:35:35;;;;;;;4.17;3.20;;;;;;;13.18;84.43;100196.25;5095271;28;20282;-66
2023/10/04 05:38:03;;;;;;;2.03;1.93;;;;;;;13.35;84.33;100199.19;5094734;28;20199;-66
2023/10/04 05:40:31;;;;;;;3.67;2.20;;;;;;;13.52;83.79;100201.28;5094982;28;20695;-66
2023/10/04 05:42:59;;;;;;;7.03;3.00;;;;;;;13.65;83.11;100198.28;5095031;28;20545;-67
2023/10/04 05:45:26;;;;;;;2.77;2.67;;;;;;;13.80;82.64;100211.59;5088249;28;20195;-66
2023/10/04 05:47:54;;;;;;;2.70;2.60;;;;;;;13.85;81.70;100202.84;5095069;28;20662;-66
2023/10/04 05:50:22;;;;;;;2.80;2.47;;;;;;;14.05;81.29;100212.53;5094767;28;20227;-66
2023/10/04 05:52:49;;;;;;;9.37;2.73;;;;;;;14.20;80.63;100212.06;5094967;28;20743;-67
2023/10/04 05:55:18;;;;;;;2.90;2.80;;;;;;;14.26;80.33;100206.69;5094635;28;20286;-67
2023/10/04 05:57:46;;;;;;;2.43;2.23;;;;;;;14.35;80.21;100213.31;5087281;28;20202;-67
2023/10/04 06:00:24;;;;;;;3.47;3.20;;;;;;;14.40;80.26;100219.19;5094698;28;20224;-66
2023/10/04 06:02:53;;;;;;;8.63;3.20;;;;;;;14.46;79.05;100214.66;5094589;28;20214;-67
2023/10/04 06:05:22;;;;;;;9.03;3.73;;;;;;;14.49;78.78;100219.72;5094602;28;20642;-66
2023/10/04 06:07:49;;;;;;;4.67;3.13;;;;;;;14.58;79.26;100216.81;5094712;28;20197;-66
2023/10/04 06:10:17;;;;;;;4.30;2.00;;;;;;;14.63;79.90;100217.53;5094614;28;20200;-66
2023/10/04 06:12:47;;;;;;;3.13;2.93;;;;;;;14.71;79.51;100210.38;5094601;28;20633;-66
2023/10/04 06:15:16;;;;;;;3.33;2.90;;;;;;;14.77;78.86;100213.63;5094452;28;20222;-66
2023/10/04 06:17:44;;;;;;;2.97;2.70;;;;;;;14.85;78.60;100206.47;5094400;28;20234;-67
2023/10/04 06:23:00;;;;;;;3.43;2.17;;;;;;;14.98;78.54;100208.56;5093582;28;20201;-67
2023/10/04 06:25:28;;;;;;;6.57;2.50;;;;;;;15.03;76.67;100210.97;5094152;28;20210;-65
2023/10/04 06:27:57;;;;;;;3.17;2.87;;;;;;;15.15;76.02;100210.56;5094392;28;20206;-64
2023/10/04 06:30:26;;;;;;;3.67;2.47;;;;;;;15.30;75.96;100203.97;5094527;28;20203;-65
2023/10/04 06:32:53;;;;;;;2.00;1.90;;;;;;;15.45;74.43;100204.25;5094258;28;20582;-64
2023/10/04 06:35:23;;;;;;;3.60;2.33;;;;;;;15.56;74.99;100197.00;5094010;28;20264;-64
2023/10/04 06:37:50;;;;;;;2.57;2.07;;;;;;;15.75;74.83;100208.31;5094106;28;20203;-65
2023/10/04 06:40:19;;;;;;;3.13;2.30;;;;;;;15.92;73.64;100204.22;5093810;28;20234;-65
2023/10/04 06:42:47;;;;;;;2.47;2.27;;;;;;;16.07;73.18;100203.63;5093282;28;20195;-65
2023/10/04 06:45:16;;;;;;;2.30;1.90;;;;;;;16.23;72.17;100199.50;5093838;28;20196;-65
2023/10/04 06:47:44;;;;;;;2.37;2.17;;;;;;;16.32;70.70;100186.19;5093578;28;20674;-65
2023/10/04 06:50:14;;;;;;;2.07;1.97;;;;;;;16.59;70.15;100198.03;5093851;28;20660;-65
2023/10/04 06:52:42;;;;;;;4.33;2.23;;;;;;;16.74;70.83;100196.53;5090988;28;20254;-66
2023/10/04 06:55:11;;;;;;;3.27;2.10;;;;;;;16.94;68.56;100203.44;5094103;28;20246;-65
2023/10/04 06:57:39;;;;;;;2.47;2.30;;;;;;;17.11;68.56;100190.59;5093488;28;20231;-65
2023/10/04 07:00:13;;;;;;;3.67;3.07;;;;;;;17.28;69.51;100194.16;5093464;28;20624;-65
2023/10/04 07:02:43;;;;;;;1.97;1.87;;;;;;;17.50;66.49;100199.19;5093437;28;20224;-66
2023/10/04 07:05:10;;;;;;;7.20;2.80;;;;;;;17.68;65.25;100198.34;5093787;28;20592;-65
2023/10/04 07:07:37;;;;;;;2.23;2.13;;;;;;;17.79;65.29;100196.13;5093618;28;20195;-67
2023/10/04 07:10:07;;;;;;;2.37;2.17;;;;;;;17.96;63.98;100197.06;5093618;28;20249;-69
2023/10/04 07:12:34;;;;;;;4.37;2.00;;;;;;;18.16;62.70;100194.34;5093507;28;20206;-67
2023/10/04 07:15:00;;;;;;;8.80;2.03;;;;;;;18.38;62.07;100194.16;5093348;28;20705;-68
2023/10/04 07:17:30;;;;;;;4.67;2.23;;;;;;;18.67;60.48;100191.81;5093539;28;20254;-67
2023/10/04 07:19:59;;;;;;;3.47;2.73;;;;;;;18.93;61.04;100197.44;5093204;28;20260;-68
2023/10/04 07:22:29;;;;;;;2.17;1.97;;;;;;;19.13;59.03;100189.41;5093105;28;20211;-67
2023/10/04 07:24:57;;;;;;;1.77;1.67;;;;;;;19.28;58.30;100188.63;5092938;28;20209;-68
2023/10/04 07:27:24;;;;;;;3.13;2.87;;;;;;;19.50;56.34;100190.94;5093267;28;20246;-69
2023/10/04 07:29:52;;;;;;;4.27;2.50;;;;;;;19.60;55.30;100194.72;5093221;28;20206;-68
2023/10/04 07:32:20;;;;;;;3.17;2.80;;;;;;;19.67;54.91;100191.72;5093282;28;20651;-67
2023/10/04 07:34:47;;;;;;;2.73;2.53;;;;;;;19.81;55.57;100188.31;5093055;28;20663;-69
2023/10/04 07:37:15;;;;;;;3.00;2.23;;;;;;;19.92;55.68;100186.81;5092871;28;20671;-70
2023/10/04 07:39:42;;;;;;;2.33;1.83;;;;;;;20.10;54.26;100189.28;5092917;28;20210;-68
2023/10/04 07:42:10;;;;;;;2.83;2.00;;;;;;;20.33;55.52;100197.50;5092668;28;20227;-68
2023/10/04 07:44:37;;;;;;;5.40;1.97;;;;;;;20.50;53.43;100188.72;5092909;28;20304;-67
2023/10/04 07:47:04;;;;;;;2.13;2.03;;;;;;;20.65;52.61;100187.81;5092557;28;20233;-68
2023/10/04 07:49:31;;;;;;;1.90;1.50;;;;;;;20.80;53.39;100186.09;5092917;28;20697;-71
2023/10/04 07:51:58;;;;;;;3.10;2.10;;;;;;;20.92;54.16;100185.34;5092755;28;20297;-69
2023/10/04 07:54:27;;;;;;;3.90;1.93;;;;;;;21.10;51.65;100188.66;5092595;28;20241;-72
2023/10/04 07:56:54;;;;;;;3.97;2.10;;;;;;;21.22;51.30;100183.53;5092682;28;20203;-69
2023/10/04 07:59:20;;;;;;;5.53;2.57;;;;;;;21.34;51.82;100181.91;5092737;28;20206;-69
2023/10/04 08:01:47;;;;;;;4.73;2.43;;;;;;;21.51;51.41;100179.09;5092542;28;20647;-68
2023/10/04 08:04:20;;;;;;;3.50;2.30;;;;;;;21.51;52.09;100181.72;5092557;28;20203;-68
2023/10/04 08:06:52;;;;;;;2.47;1.97;;;;;;;21.66;52.29;100178.13;5092537;28;20671;-69
2023/10/04 08:09:19;;;;;;;2.07;1.87;;;;;;;21.75;52.31;100177.53;5092432;28;20202;-68
2023/10/04 08:11:47;;;;;;;3.10;2.40;;;;;;;21.91;49.45;100177.44;5091954;28;20214;-68
2023/10/04 08:14:14;;;;;;;2.53;2.20;;;;;;;22.05;49.57;100176.53;5092376;28;20211;-69
2023/10/04 08:16:40;;;;;;;5.33;2.10;;;;;;;22.23;49.49;100175.34;5091822;28;20690;-68
2023/10/04 08:19:07;;;;;;;3.30;2.70;;;;;;;22.40;48.95;100172.44;5091986;28;20223;-68
2023/10/04 08:21:34;;;;;;;12.90;2.53;;;;;;;22.39;47.97;100160.34;5092166;28;20230;-67
2023/10/04 08:24:02;;;;;;;2.53;2.33;;;;;;;22.51;47.79;100156.91;5092312;28;20679;-68
2023/10/04 08:26:31;;;;;;;2.23;2.00;;;;;;;22.63;48.95;100161.28;5092115;28;20196;-68
2023/10/04 08:28:59;;;;;;;2.23;2.03;;;;;;;22.79;48.62;100153.28;5091903;28;20226;-68
2023/10/04 08:31:26;;;;;;;1.90;1.80;;;;;;;22.92;46.70;100157.56;5091851;28;20278;-69
2023/10/04 08:33:53;;;;;;;3.23;3.03;;;;;;;23.04;45.63;100149.81;5092290;28;20221;-68
2023/10/04 08:36:21;;;;;;;1.67;1.57;;;;;;;23.10;46.31;100152.00;5092029;28;20207;-68
2023/10/04 08:38:48;;;;;;;1.80;1.70;;;;;;;23.17;45.50;100140.13;5091876;28;20219;-68
2023/10/04 08:41:16;;;;;;;1.47;1.47;;;;;;;23.36;45.62;100140.53;5090888;28;20223;-68
2023/10/04 08:43:44;;;;;;;1.53;1.40;;;;;;;23.55;44.47;100135.69;5090506;28;20203;-68
2023/10/04 08:46:12;;;;;;;1.27;1.27;;;;;;;23.73;44.36;100139.59;5091169;28;20286;-68
2023/10/04 08:48:39;;;;;;;1.93;1.83;;;;;;;23.79;44.48;100133.91;5091328;28;20248;-68
2023/10/04 08:51:17;;;;;;;1.87;1.77;;;;;;;23.95;43.10;100133.59;5091460;28;20198;-68
2023/10/04 08:53:53;;;;;;;1.93;1.77;;;;;;;24.04;42.48;100128.53;5090962;28;20235;-68
2023/10/04 08:56:20;;;;;;;2.40;1.77;;;;;;;24.13;44.32;100126.22;5090867;28;20281;-69
2023/10/04 08:58:47;;;;;;;2.97;2.23;;;;;;;24.23;42.58;100124.59;5090760;28;20206;-68
2023/10/04 09:01:19;;;;;;;2.20;2.10;;;;;;;24.17;41.96;100106.72;5091115;28;20799;-68
2023/10/04 09:03:47;;;;;;;1.93;1.40;;;;;;;24.35;43.52;100115.78;5091385;28;20195;-68
2023/10/04 09:06:15;;;;;;;4.57;2.10;;;;;;;24.30;44.73;100112.66;5092788;28;20199;-68
2023/10/04 09:08:43;;;;;;;3.57;1.87;;;;;;;24.44;46.12;100104.59;5095656;28;20222;-68
2023/10/04 09:11:11;;;;;;;3.57;2.00;;;;;;;24.33;42.91;100104.59;5095724;28;20210;-68
2023/10/04 09:13:47;;;;;;;1.57;1.53;;;;;;;24.31;42.52;100111.72;5095164;28;20274;-69
2023/10/04 09:16:24;;;;;;;2.10;1.90;;;;;;;24.39;42.31;100101.50;5094217;28;20748;-68
2023/10/04 09:19:09;;;;;;;1.97;1.60;;;;;;;24.46;43.83;100102.69;5095349;28;20235;-68
2023/10/04 09:21:36;;;;;;;2.07;1.87;;;;;;;24.49;42.32;100102.47;5095033;28;20298;-68
2023/10/04 09:24:10;;;;;;;1.60;1.50;;;;;;;24.57;44.07;100094.84;5095215;28;20203;-68
2023/10/04 09:26:38;;;;;;;1.90;1.80;;;;;;;24.68;45.21;100100.13;5095506;28;20671;-69
2023/10/04 09:29:06;;;;;;;6.23;2.03;;;;;;;24.80;43.02;100091.28;5095308;28;20207;-65
2023/10/04 09:31:50;;;;;;;2.47;1.70;;;;;;;24.84;42.76;100092.75;5095220;28;20282;-67
2023/10/04 09:34:17;;;;;;;1.67;1.57;;;;;;;25.03;41.31;100098.22;5095426;28;20675;-67
2023/10/04 09:36:45;;;;;;;4.87;2.10;;;;;;;25.07;40.97;100098.81;5094089;28;20207;-68
2023/10/04 09:39:13;;;;;;;1.90;1.80;;;;;;;25.04;41.56;100085.94;5095201;28;20211;-68
2023/10/04 09:41:43;;;;;;;3.00;1.97;;;;;;;25.08;41.94;100084.72;5095107;28;20216;-67
2023/10/04 09:44:20;;;;;;;2.60;2.40;;;;;;;25.04;42.17;100086.75;5095199;28;20214;-67
2023/10/04 09:46:54;;;;;;;1.90;1.73;;;;;;;25.15;42.13;100085.06;5095258;28;20302;-67
2023/10/04 09:49:21;;;;;;;2.27;2.13;;;;;;;25.27;42.13;100084.09;5094854;28;20282;-67
2023/10/04 09:51:50;;;;;;;3.63;2.27;;;;;;;25.37;42.94;100077.16;5095236;28;20203;-67
2023/10/04 09:54:17;;;;;;;2.23;2.03;;;;;;;25.59;41.98;100077.09;5094822;28;20227;-69
2023/10/04 09:56:47;;;;;;;1.97;1.80;;;;;;;25.64;41.24;100067.09;5094706;28;20290;-68
2023/10/04 09:59:19;;;;;;;2.93;2.20;;;;;;;25.71;43.59;100068.25;5094616;28;20253;-66
2023/10/04 10:01:52;;;;;;;1.73;1.63;;;;;;;25.77;40.82;100057.22;5094891;28;20227;-66
2023/10/04 10:04:25;;;;;;;2.27;2.07;;;;;;;25.76;41.60;100050.31;5091128;28;20234;-68
2023/10/04 10:07:09;;;;;;;3.07;1.70;;;;;;;25.87;40.15;100050.25;5095217;28;20629;-67
2023/10/04 10:09:41;;;;;;;2.60;2.30;;;;;;;25.91;40.82;100048.22;5094580;28;20260;-68
2023/10/04 10:12:09;;;;;;;1.73;1.63;;;;;;;25.88;39.78;100054.53;5094543;28;20636;-68
2023/10/04 10:14:37;;;;;;;3.23;2.13;;;;;;;25.93;41.52;100052.38;5094730;28;20206;-68
2023/10/04 10:17:05;;;;;;;1.80;1.70;;;;;;;26.08;41.87;100048.47;5094083;28;20211;-68
2023/10/04 10:19:32;;;;;;;2.43;1.47;;;;;;;26.20;40.94;100033.50;5093788;28;20238;-69
2023/10/04 10:22:11;;;;;;;1.80;1.70;;;;;;;26.25;41.11;100035.72;5094462;28;20219;-68
2023/10/04 10:24:45;;;;;;;2.33;2.23;;;;;;;26.18;40.90;100013.53;5094054;28;20256;-68
2023/10/04 10:27:15;;;;;;;3.53;2.00;;;;;;;26.17;38.03;100032.91;5094304;28;20241;-68
2023/10/04 10:29:43;;;;;;;1.97;1.87;;;;;;;26.14;38.84;100022.63;5094046;28;20207;-68
2023/10/04 10:32:22;;;;;;;1.70;1.60;;;;;;;26.05;39.26;100004.03;5094141;28;20676;-68
2023/10/04 10:34:51;;;;;;;1.83;1.50;;;;;;;26.19;39.64;100015.22;5094060;28;20728;-68
2023/10/04 10:37:19;;;;;;;2.40;1.80;;;;;;;26.29;40.16;100016.09;5094083;28;20667;-67
2023/10/04 10:39:49;;;;;;;3.57;2.07;;;;;;;26.42;42.23;100016.72;5094022;28;20191;-68
2023/10/04 10:42:16;;;;;;;2.53;2.27;;;;;;;26.51;38.78;100016.75;5093992;28;20275;-68
2023/10/04 10:44:44;;;;;;;3.07;1.70;;;;;;;26.59;38.84;100014.28;5093618;28;20204;-68
2023/10/04 10:47:16;;;;;;;3.10;1.73;;;;;;;26.74;39.07;100014.75;5093446;28;20204;-67
2023/10/04 10:49:50;;;;;;;2.30;2.13;;;;;;;26.74;38.62;100003.41;5093411;28;20674;-67
2023/10/04 10:52:23;;;;;;;2.50;2.30;;;;;;;26.85;39.60;100000.72;5086410;28;20192;-67
2023/10/04 10:54:50;;;;;;;2.60;2.23;;;;;;;26.90;38.23;99996.69;5093702;28;20199;-70
2023/10/04 10:57:19;;;;;;;2.90;2.70;;;;;;;26.94;37.99;100000.72;5093850;28;20195;-67
2023/10/04 10:59:46;;;;;;;1.93;1.83;;;;;;;27.01;37.60;99986.03;5091842;28;20206;-67
2023/10/04 11:02:13;;;;;;;2.40;2.27;;;;;;;27.00;39.52;99986.19;5092503;28;20768;-67
2023/10/04 11:04:40;;;;;;;1.70;1.60;;;;;;;27.04;38.86;99983.13;5092598;28;20195;-67
2023/10/04 11:07:11;;;;;;;1.50;1.40;;;;;;;27.11;39.20;99981.63;5092947;28;20207;-68
2023/10/04 11:09:39;;;;;;;1.33;1.23;;;;;;;27.22;37.24;99987.72;5093326;28;20685;-67
2023/10/04 11:12:08;;;;;;;1.90;1.80;;;;;;;27.26;41.23;99981.22;5092968;28;20282;-67
2023/10/04 11:14:36;;;;;;;2.00;1.90;;;;;;;27.34;38.28;99973.44;5093162;28;20204;-67
2023/10/04 11:17:05;;;;;;;2.23;1.90;;;;;;;27.36;37.53;99976.78;5092879;28;20674;-67
2023/10/04 11:19:34;;;;;;;2.00;1.70;;;;;;;27.29;37.03;99959.88;5093084;28;20215;-68
2023/10/04 11:22:01;;;;;;;2.30;2.20;;;;;;;27.22;36.83;99974.56;5092799;28;20215;-67
2023/10/04 11:24:32;;;;;;;1.87;1.73;;;;;;;27.23;38.53;99965.69;5092953;28;20191;-67
2023/10/04 11:26:59;;;;;;;1.60;1.50;;;;;;;27.26;37.30;99965.44;5092581;28;20199;-68
2023/10/04 11:29:29;;;;;;;2.60;2.07;;;;;;;27.14;36.14;99972.63;5092469;28;20210;-68
2023/10/04 11:31:58;;;;;;;2.60;2.13;;;;;;;27.23;37.07;99965.69;5092500;28;20214;-68
2023/10/04 11:34:27;;;;;;;1.67;1.40;;;;;;;27.07;37.26;99930.25;5092801;28;20192;-68
2023/10/04 11:37:00;;;;;;;2.90;2.00;;;;;;;27.32;37.49;99954.34;5092457;28;20233;-67